Time;durP1;ratioP1;P1;durP2;ratioP2;P2;SDS_P1;SDS_P2;PMS_P1;PMS_P2;Temp;Humidity;BMP_temperature;BMP_pressure;BME280_temperature;BME280_humidity;BME280_pressure;Samples;Min_cycle;Max_cycle;Signal;HPM_P1;HPM_P2
2021/10/30 00:01:18;;;;;;;21.07;19.60;;;13.60;99.90;;;;;;5034284;28;20449;-64
2021/10/30 00:03:45;;;;;;;22.47;21.17;;;13.70;99.90;;;;;;5030061;28;21002;-64
2021/10/30 00:06:12;;;;;;;20.90;19.70;;;13.60;99.90;;;;;;5029448;28;20838;-64
2021/10/30 00:08:39;;;;;;;22.33;21.13;;;13.60;99.90;;;;;;5030269;28;20463;-64
2021/10/30 00:11:05;;;;;;;22.43;20.93;;;13.60;99.90;;;;;;5030977;28;20445;-64
2021/10/30 00:13:32;;;;;;;22.23;20.80;;;13.70;99.90;;;;;;5030952;28;20603;-64
2021/10/30 00:16:00;;;;;;;20.67;19.50;;;13.70;99.90;;;;;;5031379;28;20449;-64
2021/10/30 00:18:27;;;;;;;21.40;20.23;;;13.60;99.90;;;;;;5034329;28;20441;-64
2021/10/30 00:20:54;;;;;;;21.17;19.77;;;13.60;99.90;;;;;;5034504;28;20479;-64
2021/10/30 00:23:21;;;;;;;21.20;20.00;;;13.60;99.90;;;;;;5034577;28;20437;-64
2021/10/30 00:25:48;;;;;;;21.80;20.60;;;13.60;99.90;;;;;;5042541;28;20468;-64
2021/10/30 00:28:14;;;;;;;20.60;19.30;;;13.60;99.90;;;;;;5044431;28;20449;-64
2021/10/30 00:30:41;;;;;;;20.93;19.83;;;13.50;99.90;;;;;;5045112;28;20539;-64
2021/10/30 00:33:09;;;;;;;22.07;20.47;;;13.50;99.90;;;;;;5044179;28;20481;-62
2021/10/30 00:35:36;;;;;;;21.00;19.73;;;13.50;99.90;;;;;;5043032;28;20472;-64
2021/10/30 00:38:03;;;;;;;21.00;19.80;;;13.50;99.90;;;;;;5043505;28;20449;-64
2021/10/30 00:40:30;;;;;;;21.53;20.23;;;13.50;99.90;;;;;;5043095;28;20455;-64
2021/10/30 00:42:56;;;;;;;20.90;19.60;;;13.60;99.90;;;;;;5043924;28;20436;-64
2021/10/30 00:45:23;;;;;;;20.50;19.20;;;13.60;99.90;;;;;;5044715;28;20472;-64
2021/10/30 00:47:50;;;;;;;21.07;19.87;;;13.60;99.90;;;;;;5044776;28;20456;-64
2021/10/30 00:50:18;;;;;;;21.07;19.60;;;13.50;99.90;;;;;;5043762;28;20943;-63
2021/10/30 00:52:46;;;;;;;20.70;19.30;;;13.50;99.90;;;;;;5043200;28;21029;-64
2021/10/30 00:55:13;;;;;;;19.40;18.40;;;13.50;99.90;;;;;;5042883;28;20461;-64
2021/10/30 00:57:41;;;;;;;21.90;20.60;;;13.50;99.90;;;;;;5041660;28;20460;-64
2021/10/30 01:00:10;;;;;;;21.60;20.10;;;13.50;99.90;;;;;;5041939;28;20552;-64
2021/10/30 01:02:37;;;;;;;21.33;20.00;;;13.50;99.90;;;;;;5041892;28;20452;-64
2021/10/30 01:05:04;;;;;;;21.33;19.87;;;13.40;99.90;;;;;;5041502;28;20476;-64
2021/10/30 01:07:33;;;;;;;20.13;19.00;;;13.40;99.90;;;;;;5041558;28;20445;-64
2021/10/30 01:09:59;;;;;;;21.40;19.97;;;13.30;99.90;;;;;;5041497;28;20451;-63
2021/10/30 01:12:26;;;;;;;20.03;18.87;;;13.30;99.90;;;;;;5041421;28;21029;-63
2021/10/30 01:14:54;;;;;;;20.47;19.30;;;13.20;99.90;;;;;;5041690;28;20596;-64
2021/10/30 01:17:21;;;;;;;21.17;19.77;;;13.20;99.90;;;;;;5041955;28;20532;-64
2021/10/30 01:19:52;;;;;;;19.97;18.77;;;13.20;99.90;;;;;;5042235;28;20456;-64
2021/10/30 01:22:21;;;;;;;19.60;18.50;;;13.10;99.90;;;;;;5041924;28;20444;-64
2021/10/30 01:24:48;;;;;;;20.27;18.87;;;13.10;99.90;;;;;;5041989;28;20480;-63
2021/10/30 01:27:16;;;;;;;19.07;18.07;;;13.10;99.90;;;;;;5041836;28;20448;-64
2021/10/30 01:29:43;;;;;;;20.27;18.97;;;13.10;99.90;;;;;;5041144;28;20441;-64
2021/10/30 01:32:10;;;;;;;20.13;18.90;;;13.10;99.90;;;;;;5042057;28;20489;-64
2021/10/30 01:34:37;;;;;;;20.87;19.50;;;13.00;99.90;;;;;;5044765;28;20851;-64
2021/10/30 01:37:05;;;;;;;19.47;18.27;;;13.00;99.90;;;;;;5044377;28;20449;-64
2021/10/30 01:39:32;;;;;;;19.10;18.00;;;13.00;99.90;;;;;;5042849;28;20441;-64
2021/10/30 01:41:59;;;;;;;20.47;19.00;;;13.00;99.90;;;;;;5044041;28;20819;-64
2021/10/30 01:44:27;;;;;;;20.30;18.90;;;13.00;99.90;;;;;;5043114;28;20465;-64
2021/10/30 01:46:57;;;;;;;21.23;19.93;;;13.00;99.90;;;;;;5042853;28;20455;-64
2021/10/30 01:49:24;;;;;;;19.30;18.20;;;13.00;99.90;;;;;;5042504;28;20437;-64
2021/10/30 01:51:51;;;;;;;19.37;18.27;;;13.00;99.90;;;;;;5042048;28;20441;-64
2021/10/30 01:54:19;;;;;;;19.77;18.43;;;13.00;99.90;;;;;;5042510;28;20472;-64
2021/10/30 01:56:46;;;;;;;20.67;19.37;;;13.00;99.90;;;;;;5041984;28;20453;-64
2021/10/30 01:59:13;;;;;;;18.90;17.90;;;13.00;99.90;;;;;;5041349;28;20449;-64
2021/10/30 02:01:39;;;;;;;19.43;18.30;;;13.00;99.90;;;;;;5041288;28;20437;-64
2021/10/30 02:04:06;;;;;;;19.07;17.97;;;13.00;99.90;;;;;;5041086;28;20463;-64
2021/10/30 02:06:33;;;;;;;20.13;18.93;;;13.00;99.90;;;;;;5041052;28;20457;-64
2021/10/30 02:09:00;;;;;;;18.10;17.10;;;12.90;99.90;;;;;;5040634;28;20445;-62
2021/10/30 02:11:28;;;;;;;18.57;17.00;;;12.90;99.90;;;;;;5040480;28;20449;-64
2021/10/30 02:13:54;;;;;;;19.37;18.27;;;12.90;99.90;;;;;;5039430;28;20488;-61
2021/10/30 02:16:21;;;;;;;18.37;17.37;;;12.90;99.90;;;;;;5039777;28;20447;-64
2021/10/30 02:18:48;;;;;;;20.00;18.80;;;12.90;99.90;;;;;;5039010;28;20449;-63
2021/10/30 02:21:14;;;;;;;18.90;17.47;;;12.90;99.90;;;;;;5038620;28;20815;-64
2021/10/30 02:23:41;;;;;;;18.57;17.30;;;12.90;99.90;;;;;;5039014;28;20468;-64
2021/10/30 02:26:08;;;;;;;19.70;18.30;;;12.90;99.90;;;;;;5038381;28;20449;-64
2021/10/30 02:28:36;;;;;;;19.77;18.13;;;12.90;99.90;;;;;;5038054;28;20751;-64
2021/10/30 02:31:03;;;;;;;18.63;17.63;;;12.90;99.90;;;;;;5038448;28;20931;-62
2021/10/30 02:33:29;;;;;;;18.70;17.70;;;12.80;99.90;;;;;;5038112;28;20480;-64
2021/10/30 02:35:56;;;;;;;18.90;17.80;;;12.80;99.90;;;;;;5038020;28;20452;-64
2021/10/30 02:38:23;;;;;;;19.33;18.13;;;12.80;99.90;;;;;;5037538;28;20449;-62
2021/10/30 02:40:49;;;;;;;18.20;17.20;;;12.80;99.90;;;;;;5037902;28;20460;-64
2021/10/30 02:43:16;;;;;;;22.40;20.77;;;12.80;99.90;;;;;;5037844;28;20453;-64
2021/10/30 02:45:44;;;;;;;17.77;16.60;;;12.80;99.90;;;;;;5037306;28;20472;-64
2021/10/30 02:48:11;;;;;;;18.43;17.30;;;12.80;99.90;;;;;;5039215;28;20456;-64
2021/10/30 02:50:38;;;;;;;18.73;17.50;;;12.80;99.90;;;;;;5041546;28;20799;-64
2021/10/30 02:53:04;;;;;;;17.53;16.53;;;12.80;99.90;;;;;;5042340;28;20488;-64
2021/10/30 02:55:31;;;;;;;19.70;18.20;;;12.80;99.90;;;;;;5041516;28;20465;-64
2021/10/30 02:57:58;;;;;;;18.17;17.07;;;12.80;99.90;;;;;;5042124;28;20448;-64
2021/10/30 03:00:25;;;;;;;17.23;16.37;;;12.80;99.90;;;;;;5042021;28;20441;-64
2021/10/30 03:02:53;;;;;;;17.53;16.40;;;12.80;99.90;;;;;;5042359;28;20454;-64
2021/10/30 03:05:20;;;;;;;18.30;17.30;;;12.80;99.90;;;;;;5042388;28;20516;-64
2021/10/30 03:07:46;;;;;;;17.13;16.17;;;12.80;99.90;;;;;;5043252;28;20791;-64
2021/10/30 03:10:13;;;;;;;19.00;17.73;;;12.80;99.90;;;;;;5043211;28;20440;-64
2021/10/30 03:12:40;;;;;;;17.50;16.50;;;12.80;99.90;;;;;;5040096;28;20484;-64
2021/10/30 03:15:07;;;;;;;17.67;16.70;;;12.80;99.90;;;;;;5039055;28;20469;-64
2021/10/30 03:17:34;;;;;;;17.90;16.90;;;12.80;99.90;;;;;;5039671;28;20449;-64
2021/10/30 03:20:02;;;;;;;16.57;15.80;;;12.80;99.90;;;;;;5038515;28;20441;-64
2021/10/30 03:22:29;;;;;;;16.67;15.87;;;12.90;99.90;;;;;;5038813;28;20445;-64
2021/10/30 03:24:56;;;;;;;19.20;18.07;;;12.90;99.90;;;;;;5038199;28;20476;-64
2021/10/30 03:27:22;;;;;;;17.43;16.63;;;12.90;99.90;;;;;;5038419;28;20448;-64
2021/10/30 03:29:49;;;;;;;20.07;19.07;;;12.90;99.90;;;;;;5037170;28;20445;-64
2021/10/30 03:32:16;;;;;;;17.17;16.27;;;12.90;99.90;;;;;;5037127;28;20448;-62
2021/10/30 03:34:42;;;;;;;18.30;17.30;;;13.00;99.90;;;;;;5036239;28;20599;-63
2021/10/30 03:37:10;;;;;;;17.67;16.77;;;13.00;99.90;;;;;;5037802;28;20449;-63
2021/10/30 03:39:37;;;;;;;16.80;16.00;;;13.00;99.90;;;;;;5036357;28;20457;-64
2021/10/30 03:42:05;;;;;;;17.83;16.83;;;13.10;99.90;;;;;;5036385;28;20803;-64
2021/10/30 03:44:31;;;;;;;17.80;16.60;;;13.10;99.90;;;;;;5036634;28;20464;-64
2021/10/30 03:46:58;;;;;;;17.83;16.93;;;13.10;99.90;;;;;;5036635;28;20448;-63
2021/10/30 03:49:25;;;;;;;17.83;16.90;;;13.00;99.90;;;;;;5035417;28;20445;-64
2021/10/30 03:51:52;;;;;;;18.50;17.40;;;13.00;99.90;;;;;;5037552;28;20449;-64
2021/10/30 03:54:20;;;;;;;17.67;16.67;;;13.00;99.90;;;;;;5039442;28;20488;-63
2021/10/30 03:56:46;;;;;;;18.80;17.00;;;12.90;99.90;;;;;;5038946;28;20445;-64
2021/10/30 03:59:14;;;;;;;17.40;16.13;;;12.80;99.90;;;;;;5039695;28;20527;-64
2021/10/30 04:01:40;;;;;;;16.93;16.03;;;12.70;99.90;;;;;;5040307;28;20885;-61
2021/10/30 04:04:07;;;;;;;16.70;15.80;;;12.60;99.90;;;;;;5040382;28;20472;-63
2021/10/30 04:06:34;;;;;;;17.60;16.30;;;12.60;99.90;;;;;;5040273;28;20444;-64
2021/10/30 04:09:00;;;;;;;16.57;15.47;;;12.50;99.90;;;;;;5041138;28;20939;-64
2021/10/30 04:11:28;;;;;;;15.80;14.80;;;12.40;99.90;;;;;;5041396;28;20457;-63
2021/10/30 04:13:55;;;;;;;19.10;17.77;;;12.40;99.90;;;;;;5041871;28;20484;-62
2021/10/30 04:16:22;;;;;;;16.50;15.30;;;12.30;99.90;;;;;;5042088;28;20448;-64
2021/10/30 04:18:49;;;;;;;16.53;15.20;;;12.20;99.90;;;;;;5042947;28;20943;-61
2021/10/30 04:21:16;;;;;;;17.73;16.23;;;12.20;99.90;;;;;;5043835;28;20452;-64
2021/10/30 04:23:42;;;;;;;16.07;14.77;;;12.10;99.90;;;;;;5043164;28;20451;-64
2021/10/30 04:26:10;;;;;;;16.63;15.23;;;12.10;99.90;;;;;;5044818;28;20809;-63
2021/10/30 04:28:38;;;;;;;16.00;15.03;;;12.00;99.90;;;;;;5038172;28;20456;-62
2021/10/30 04:31:06;;;;;;;15.57;14.60;;;12.00;99.90;;;;;;5037015;28;20977;-63
2021/10/30 04:33:33;;;;;;;15.77;14.70;;;12.00;99.90;;;;;;5036164;28;20480;-64
2021/10/30 04:36:02;;;;;;;17.23;15.87;;;11.90;99.90;;;;;;5042363;28;20508;-64
2021/10/30 04:38:29;;;;;;;17.00;15.70;;;11.90;99.90;;;;;;5041189;28;20544;-64
2021/10/30 04:40:56;;;;;;;16.30;15.10;;;11.90;99.90;;;;;;5045090;28;20444;-64
2021/10/30 04:43:23;;;;;;;15.30;14.10;;;11.80;99.90;;;;;;5045004;28;20448;-64
2021/10/30 04:45:51;;;;;;;15.80;14.70;;;11.80;99.90;;;;;;5044256;28;20469;-63
2021/10/30 04:48:18;;;;;;;15.93;14.90;;;11.80;99.90;;;;;;5043871;28;20518;-64
2021/10/30 04:50:45;;;;;;;15.17;13.97;;;11.70;99.90;;;;;;5043702;28;20445;-63
2021/10/30 04:53:12;;;;;;;16.20;15.10;;;11.70;99.90;;;;;;5043603;28;20448;-64
2021/10/30 04:55:39;;;;;;;16.53;15.20;;;11.70;99.90;;;;;;5043793;28;20464;-64
2021/10/30 04:58:06;;;;;;;16.27;15.03;;;11.70;99.90;;;;;;5042737;28;20445;-64
2021/10/30 05:00:32;;;;;;;15.70;14.53;;;11.70;99.90;;;;;;5041777;28;20468;-63
2021/10/30 05:03:01;;;;;;;14.07;13.27;;;11.70;99.90;;;;;;5040310;28;20449;-63
2021/10/30 05:05:28;;;;;;;15.83;14.73;;;11.70;99.90;;;;;;5039655;28;20469;-64
2021/10/30 05:07:54;;;;;;;15.23;14.23;;;11.70;99.90;;;;;;5039120;28;20453;-64
2021/10/30 05:10:21;;;;;;;16.30;15.10;;;11.70;99.90;;;;;;5040120;28;20472;-64
2021/10/30 05:12:48;;;;;;;15.20;14.03;;;11.70;99.90;;;;;;5039374;28;20536;-64
2021/10/30 05:15:15;;;;;;;14.90;13.90;;;11.70;99.90;;;;;;5039332;28;20905;-62
2021/10/30 05:17:41;;;;;;;16.23;14.83;;;11.70;99.90;;;;;;5039146;28;20445;-63
2021/10/30 05:20:11;;;;;;;15.77;14.77;;;11.70;99.90;;;;;;5038049;28;20461;-64
2021/10/30 05:22:38;;;;;;;14.60;13.40;;;11.80;99.90;;;;;;5040023;28;20457;-64
2021/10/30 05:25:05;;;;;;;15.77;14.33;;;11.80;99.90;;;;;;5041652;28;20481;-64
2021/10/30 05:27:32;;;;;;;15.97;14.87;;;11.80;99.90;;;;;;5044387;28;20442;-64
2021/10/30 05:29:58;;;;;;;14.93;13.90;;;11.80;99.90;;;;;;5043457;28;20954;-63
2021/10/30 05:32:25;;;;;;;15.43;14.53;;;11.80;99.90;;;;;;5042907;28;20441;-64
2021/10/30 05:34:52;;;;;;;15.17;14.17;;;11.80;99.90;;;;;;5043824;28;20461;-64
2021/10/30 05:37:20;;;;;;;15.80;14.60;;;11.80;99.90;;;;;;5043840;28;20456;-64
2021/10/30 05:39:46;;;;;;;15.03;14.03;;;11.90;99.90;;;;;;5044282;28;20445;-64
2021/10/30 05:42:13;;;;;;;15.73;14.73;;;11.90;99.90;;;;;;5043613;28;20445;-64
2021/10/30 05:44:41;;;;;;;17.60;16.20;;;11.80;99.90;;;;;;5039164;28;20504;-64
2021/10/30 05:47:08;;;;;;;15.67;14.77;;;11.90;99.90;;;;;;5040954;28;20452;-64
2021/10/30 05:49:37;;;;;;;16.20;15.10;;;11.90;99.90;;;;;;5039377;28;20453;-62
2021/10/30 05:52:05;;;;;;;16.53;15.30;;;11.90;99.90;;;;;;5039385;28;20484;-64
2021/10/30 05:54:33;;;;;;;14.60;13.70;;;11.90;99.90;;;;;;5039337;28;20811;-63
2021/10/30 05:57:00;;;;;;;16.27;15.20;;;12.00;99.90;;;;;;5039292;28;20453;-64
2021/10/30 05:59:27;;;;;;;15.37;14.47;;;11.90;99.90;;;;;;5044538;28;20799;-64
2021/10/30 06:01:54;;;;;;;16.80;15.60;;;11.90;99.90;;;;;;5038975;28;20456;-64
2021/10/30 06:04:20;;;;;;;16.17;15.07;;;12.00;99.90;;;;;;5037463;28;20899;-64
2021/10/30 06:06:47;;;;;;;15.60;14.40;;;12.00;99.90;;;;;;5037866;28;20518;-63
2021/10/30 06:09:14;;;;;;;15.27;14.27;;;12.00;99.90;;;;;;5037643;28;20456;-63
2021/10/30 06:11:42;;;;;;;15.23;14.27;;;12.00;99.90;;;;;;5037360;28;20476;-62
2021/10/30 06:14:10;;;;;;;16.20;14.93;;;12.00;99.90;;;;;;5036366;28;20465;-64
2021/10/30 06:16:37;;;;;;;14.63;13.73;;;12.00;99.90;;;;;;5036993;28;20456;-63
2021/10/30 06:19:04;;;;;;;16.13;15.20;;;12.10;99.90;;;;;;5036353;28;20445;-63
2021/10/30 06:21:31;;;;;;;15.30;14.40;;;12.10;99.90;;;;;;5036109;28;20453;-62
2021/10/30 06:23:59;;;;;;;16.07;15.20;;;12.20;99.90;;;;;;5059681;22;20498;-66
2021/10/30 06:26:26;;;;;;;16.33;15.43;;;12.20;99.90;;;;;;4992828;28;20974;-66
2021/10/30 06:28:55;;;;;;;15.63;14.73;;;12.20;99.90;;;;;;5006389;28;20446;-66
2021/10/30 06:31:22;;;;;;;16.57;15.07;;;12.20;99.90;;;;;;5012405;28;20778;-66
2021/10/30 06:33:49;;;;;;;15.90;14.90;;;12.30;99.90;;;;;;5012189;28;20816;-66
2021/10/30 06:36:16;;;;;;;16.50;15.40;;;12.30;99.90;;;;;;5012238;28;20454;-66
2021/10/30 06:38:43;;;;;;;16.73;15.10;;;12.30;99.90;;;;;;4993360;28;20852;-66
2021/10/30 06:41:12;;;;;;;15.37;14.57;;;12.30;99.90;;;;;;4992543;28;20858;-66
2021/10/30 06:43:39;;;;;;;16.30;15.30;;;12.30;99.90;;;;;;4992491;28;20573;-66
2021/10/30 06:46:07;;;;;;;16.03;15.00;;;12.30;99.90;;;;;;4992459;28;20474;-66
2021/10/30 06:48:34;;;;;;;16.77;15.60;;;12.30;99.90;;;;;;4994120;28;20458;-66
2021/10/30 06:51:01;;;;;;;15.67;14.87;;;12.30;99.90;;;;;;5011713;28;20457;-66
2021/10/30 06:53:28;;;;;;;15.70;14.97;;;12.30;99.90;;;;;;5012266;28;20438;-66
2021/10/30 06:55:56;;;;;;;17.67;16.63;;;12.30;99.90;;;;;;5012117;28;20466;-66
2021/10/30 06:58:23;;;;;;;16.57;15.33;;;12.20;99.90;;;;;;5011758;28;20472;-66
2021/10/30 07:00:50;;;;;;;16.67;15.77;;;12.20;99.90;;;;;;5006688;28;20451;-66
2021/10/30 07:03:18;;;;;;;17.03;15.87;;;12.20;99.90;;;;;;4992158;28;20473;-66
2021/10/30 07:05:45;;;;;;;16.23;15.43;;;12.20;99.90;;;;;;4992169;28;20494;-66
2021/10/30 07:08:12;;;;;;;16.10;15.20;;;12.20;99.90;;;;;;4991927;28;20935;-66
2021/10/30 07:10:38;;;;;;;16.10;15.30;;;12.20;99.90;;;;;;4992130;28;20459;-66
2021/10/30 07:13:05;;;;;;;17.07;15.70;;;12.20;99.90;;;;;;4999707;28;20500;-66
2021/10/30 07:15:32;;;;;;;17.07;16.03;;;12.30;99.90;;;;;;5011666;28;20470;-66
2021/10/30 07:17:58;;;;;;;16.57;15.67;;;12.30;99.90;;;;;;5011563;28;20477;-66
2021/10/30 07:20:27;;;;;;;17.60;16.60;;;12.30;99.90;;;;;;5011509;28;20442;-66
2021/10/30 07:22:53;;;;;;;18.23;17.13;;;12.30;99.90;;;;;;5011597;28;20454;-66
2021/10/30 07:25:21;;;;;;;18.17;16.63;;;12.30;99.90;;;;;;5000631;28;20486;-66
2021/10/30 07:27:49;;;;;;;17.83;16.83;;;12.30;99.90;;;;;;4999410;28;20435;-66
2021/10/30 07:30:18;;;;;;;17.77;16.67;;;12.30;99.90;;;;;;4991709;28;20823;-65
2021/10/30 07:32:50;;;;;;;18.67;17.47;;;12.30;99.90;;;;;;4983922;28;20453;-66
2021/10/30 07:35:16;;;;;;;17.60;16.50;;;12.40;99.90;;;;;;4983953;28;20481;-66
2021/10/30 07:37:44;;;;;;;18.00;17.00;;;12.40;99.90;;;;;;4994687;28;20450;-65
2021/10/30 07:40:13;;;;;;;17.90;16.80;;;12.40;99.90;;;;;;5003296;28;20453;-65
2021/10/30 07:42:40;;;;;;;16.80;15.80;;;12.40;99.90;;;;;;5003931;28;20900;-65
2021/10/30 07:45:07;;;;;;;17.17;16.17;;;12.40;99.90;;;;;;5003271;28;20478;-66
2021/10/30 07:47:34;;;;;;;17.20;16.30;;;12.50;99.90;;;;;;5003481;28;20449;-65
2021/10/30 07:50:01;;;;;;;17.73;16.73;;;12.40;99.90;;;;;;4991650;28;20486;-65
2021/10/30 07:52:28;;;;;;;18.13;17.00;;;12.40;99.90;;;;;;4983629;28;20901;-65
2021/10/30 07:54:57;;;;;;;17.40;16.30;;;12.40;99.90;;;;;;4983734;28;20459;-66
2021/10/30 07:57:24;;;;;;;18.03;16.93;;;12.40;99.90;;;;;;4990173;28;20450;-65
2021/10/30 07:59:51;;;;;;;18.80;17.40;;;12.50;99.90;;;;;;5002840;28;20454;-65
2021/10/30 08:02:18;;;;;;;18.90;17.70;;;12.50;99.90;;;;;;5003237;28;20481;-65
2021/10/30 08:04:45;;;;;;;19.07;17.80;;;12.50;99.90;;;;;;5002874;28;21106;-67
2021/10/30 08:07:14;;;;;;;19.00;17.70;;;12.50;99.90;;;;;;4998691;28;21035;-67
2021/10/30 08:09:42;;;;;;;19.03;18.03;;;12.50;99.90;;;;;;4983296;28;20824;-66
2021/10/30 08:12:11;;;;;;;20.33;18.83;;;12.50;99.90;;;;;;4983394;28;20469;-67
2021/10/30 08:14:38;;;;;;;18.63;17.43;;;12.50;99.90;;;;;;4983371;28;20470;-71
2021/10/30 08:17:06;;;;;;;19.83;18.43;;;12.50;99.90;;;;;;4983447;28;20455;-66
2021/10/30 08:19:33;;;;;;;20.23;18.90;;;12.60;99.90;;;;;;4991271;28;20480;-65
2021/10/30 08:22:00;;;;;;;18.07;17.10;;;12.60;99.90;;;;;;5002797;28;20457;-65
2021/10/30 08:24:27;;;;;;;18.03;17.03;;;12.60;99.90;;;;;;5002443;28;20492;-65
2021/10/30 08:26:54;;;;;;;19.63;18.63;;;12.60;99.90;;;;;;5002810;28;20454;-65
2021/10/30 08:29:22;;;;;;;19.90;18.80;;;12.60;99.90;;;;;;5002431;28;20464;-65
2021/10/30 08:31:50;;;;;;;18.73;17.70;;;12.70;99.90;;;;;;4991382;28;20459;-65
2021/10/30 08:34:17;;;;;;;19.67;18.57;;;12.70;99.90;;;;;;4989405;28;20477;-66
2021/10/30 08:36:44;;;;;;;19.30;18.07;;;12.80;99.90;;;;;;5001793;28;20457;-66
2021/10/30 08:39:11;;;;;;;18.83;17.60;;;12.70;99.90;;;;;;5002264;28;20812;-66
2021/10/30 08:41:39;;;;;;;20.07;18.73;;;12.70;99.90;;;;;;5002474;28;20449;-65
2021/10/30 08:44:06;;;;;;;20.00;18.60;;;12.70;99.90;;;;;;4990306;28;20459;-65
2021/10/30 08:46:37;;;;;;;18.50;17.37;;;12.60;99.90;;;;;;4982869;28;20458;-66
2021/10/30 08:49:05;;;;;;;17.67;16.73;;;12.60;99.90;;;;;;4982832;28;20450;-66
2021/10/30 08:51:33;;;;;;;19.13;17.93;;;12.60;99.90;;;;;;4982824;28;20462;-65
2021/10/30 08:54:01;;;;;;;18.40;17.30;;;12.60;99.90;;;;;;4982625;28;20446;-66
2021/10/30 08:56:32;;;;;;;17.40;16.30;;;12.70;99.90;;;;;;4982928;28;21134;-66
2021/10/30 08:59:01;;;;;;;18.20;17.20;;;12.70;99.90;;;;;;4982461;28;20453;-65
2021/10/30 09:01:28;;;;;;;18.90;17.60;;;12.70;99.90;;;;;;4982403;28;20529;-66
2021/10/30 09:04:01;;;;;;;17.03;15.97;;;12.70;99.90;;;;;;4982699;28;20459;-66
2021/10/30 09:06:33;;;;;;;17.13;16.13;;;12.70;99.90;;;;;;4982179;28;20904;-66
2021/10/30 09:09:13;;;;;;;16.40;15.50;;;12.70;99.90;;;;;;4982190;28;20632;-66
2021/10/30 09:11:42;;;;;;;17.53;16.40;;;12.70;99.90;;;;;;4982645;28;20581;-67
2021/10/30 09:14:18;;;;;;;17.50;16.50;;;12.80;99.90;;;;;;4992763;28;20561;-66
2021/10/30 09:17:06;;;;;;;17.47;16.37;;;12.80;99.90;;;;;;5001661;28;20453;-66
2021/10/30 09:19:34;;;;;;;17.40;16.10;;;12.80;99.90;;;;;;5001345;28;20461;-67
2021/10/30 09:22:05;;;;;;;16.63;15.73;;;12.80;99.90;;;;;;5001599;28;20457;-66
2021/10/30 09:24:32;;;;;;;17.60;16.50;;;12.80;99.90;;;;;;5001269;28;20886;-65
2021/10/30 09:26:59;;;;;;;16.50;15.50;;;12.80;99.90;;;;;;4982637;28;20665;-65
2021/10/30 09:29:25;;;;;;;16.17;15.27;;;12.80;99.90;;;;;;4982054;28;20446;-66
2021/10/30 09:31:52;;;;;;;17.53;16.50;;;12.80;99.90;;;;;;4981937;28;20462;-66
2021/10/30 09:34:28;;;;;;;17.50;16.50;;;12.80;99.90;;;;;;4982383;28;20501;-66
2021/10/30 09:36:58;;;;;;;17.57;16.57;;;12.80;99.90;;;;;;4982086;28;20461;-67
2021/10/30 09:39:25;;;;;;;17.17;16.30;;;12.90;99.90;;;;;;5001132;28;20489;-67
2021/10/30 09:41:52;;;;;;;18.50;17.23;;;12.90;99.90;;;;;;5001258;28;20809;-66
2021/10/30 09:44:25;;;;;;;17.00;15.80;;;13.00;99.90;;;;;;5000923;28;20591;-66
2021/10/30 09:46:57;;;;;;;17.03;15.93;;;13.10;99.90;;;;;;5001245;28;20457;-66
2021/10/30 09:49:26;;;;;;;17.67;16.57;;;13.10;99.90;;;;;;4997683;28;20516;-66
2021/10/30 09:51:55;;;;;;;16.37;15.27;;;13.20;99.90;;;;;;4981767;28;20454;-66
2021/10/30 09:54:34;;;;;;;17.50;16.30;;;13.20;99.90;;;;;;4981298;28;20877;-66
2021/10/30 09:57:04;;;;;;;16.47;15.53;;;13.20;99.90;;;;;;4981463;28;20581;-66
2021/10/30 09:59:34;;;;;;;16.23;15.33;;;13.20;99.90;;;;;;4996998;28;20824;-67
2021/10/30 10:02:01;;;;;;;16.63;15.63;;;13.30;99.90;;;;;;5000904;28;20475;-66
2021/10/30 10:04:29;;;;;;;16.60;15.50;;;13.30;99.90;;;;;;4999188;28;20588;-66
2021/10/30 10:06:56;;;;;;;17.27;16.37;;;13.30;99.90;;;;;;4981059;28;20457;-66
2021/10/30 10:09:23;;;;;;;17.60;16.60;;;13.40;99.90;;;;;;4980869;28;20932;-66
2021/10/30 10:11:53;;;;;;;17.03;15.97;;;13.40;99.90;;;;;;4981096;28;20451;-66
2021/10/30 10:14:21;;;;;;;18.10;17.10;;;13.50;99.90;;;;;;4981230;28;20475;-66
2021/10/30 10:16:49;;;;;;;17.17;16.33;;;13.50;99.90;;;;;;4981566;28;21011;-66
2021/10/30 10:19:17;;;;;;;16.37;15.47;;;13.70;99.90;;;;;;4980705;28;20975;-66
2021/10/30 10:21:44;;;;;;;18.73;17.13;;;13.80;99.90;;;;;;4980956;28;20462;-66
2021/10/30 10:24:13;;;;;;;16.77;15.87;;;13.90;99.90;;;;;;4980573;28;20506;-65
2021/10/30 10:26:51;;;;;;;18.93;17.83;;;13.90;99.90;;;;;;4997534;28;20493;-65
2021/10/30 10:29:33;;;;;;;18.83;17.47;;;13.90;99.90;;;;;;4999652;28;20464;-65
2021/10/30 10:32:01;;;;;;;16.93;15.93;;;13.90;99.90;;;;;;5000278;28;20454;-65
2021/10/30 10:34:31;;;;;;;17.13;16.23;;;13.80;99.90;;;;;;5000117;28;20478;-65
2021/10/30 10:37:23;;;;;;;18.37;17.37;;;13.80;99.90;;;;;;4981504;28;20455;-66
2021/10/30 10:39:52;;;;;;;18.03;16.77;;;13.80;99.90;;;;;;4980451;28;20549;-65
2021/10/30 10:42:42;;;;;;;17.67;16.50;;;13.70;99.90;;;;;;4980707;28;21130;-65
2021/10/30 10:45:10;;;;;;;19.47;18.27;;;13.70;99.90;;;;;;4983931;28;20529;-65
2021/10/30 10:47:53;;;;;;;17.20;16.20;;;13.70;99.90;;;;;;4999677;28;20450;-65
2021/10/30 10:50:26;;;;;;;19.23;18.17;;;13.60;99.90;;;;;;5000239;28;20897;-65
2021/10/30 10:53:15;;;;;;;19.27;17.93;;;13.60;99.90;;;;;;5000179;28;20454;-65
2021/10/30 10:56:07;;;;;;;19.80;18.40;;;13.60;99.90;;;;;;4991636;28;20525;-65
2021/10/30 10:59:13;;;;;;;18.53;17.53;;;13.50;99.90;;;;;;4980555;28;20489;-65
2021/10/30 11:02:20;;;;;;;19.03;17.80;;;13.50;99.90;;;;;;4980386;28;20959;-65
2021/10/30 11:05:24;;;;;;;19.63;18.47;;;13.40;99.90;;;;;;4980625;28;21098;-65
2021/10/30 11:08:34;;;;;;;18.30;17.20;;;13.40;99.90;;;;;;4960817;28;20459;-65
2021/10/30 11:11:14;;;;;;;19.20;17.80;;;13.40;99.90;;;;;;4924220;28;20486;-65
2021/10/30 11:13:52;;;;;;;19.60;18.33;;;13.40;99.90;;;;;;4960924;28;20447;-65
2021/10/30 11:16:25;;;;;;;19.67;18.50;;;13.40;99.90;;;;;;4973717;28;20787;-65
2021/10/30 11:19:02;;;;;;;18.93;17.73;;;13.40;99.90;;;;;;4980124;28;20972;-65
2021/10/30 11:21:37;;;;;;;19.10;18.00;;;13.40;99.90;;;;;;4980385;28;20443;-65
2021/10/30 11:24:16;;;;;;;19.97;18.60;;;13.40;99.90;;;;;;4979980;28;20564;-65
2021/10/30 11:26:44;;;;;;;19.07;17.87;;;13.50;99.90;;;;;;4995134;28;20485;-65
2021/10/30 11:29:12;;;;;;;18.37;17.27;;;13.40;99.90;;;;;;4982752;28;20489;-66
2021/10/30 11:31:40;;;;;;;19.67;18.47;;;13.40;99.90;;;;;;4999818;28;20902;-66
2021/10/30 11:34:09;;;;;;;20.53;19.23;;;13.30;99.90;;;;;;4999490;28;20457;-65
2021/10/30 11:36:40;;;;;;;20.20;18.80;;;13.30;99.90;;;;;;4985126;28;20459;-65
2021/10/30 11:39:09;;;;;;;20.90;19.50;;;13.30;99.90;;;;;;4979789;28;20482;-65
2021/10/30 11:41:38;;;;;;;19.00;17.80;;;13.30;99.90;;;;;;4980007;28;20451;-65
2021/10/30 11:44:08;;;;;;;19.53;18.33;;;13.30;99.90;;;;;;4979999;28;20533;-65
2021/10/30 11:46:39;;;;;;;18.97;17.77;;;13.20;99.90;;;;;;4993851;28;20536;-65
2021/10/30 11:49:08;;;;;;;18.23;17.23;;;13.20;99.90;;;;;;4999316;28;20975;-65
2021/10/30 11:51:40;;;;;;;19.53;18.33;;;13.20;99.90;;;;;;4999552;28;20989;-65
2021/10/30 11:54:12;;;;;;;20.23;19.03;;;13.20;99.90;;;;;;4999298;28;20480;-66
2021/10/30 11:56:40;;;;;;;18.97;17.77;;;13.20;99.90;;;;;;4998982;28;20477;-66
2021/10/30 11:59:09;;;;;;;18.20;17.10;;;13.30;99.90;;;;;;4999250;28;21053;-66
2021/10/30 12:01:38;;;;;;;19.20;18.00;;;13.20;99.90;;;;;;4999711;28;20474;-66
2021/10/30 12:04:12;;;;;;;19.33;18.13;;;13.30;99.90;;;;;;4999559;28;20971;-66
2021/10/30 12:06:42;;;;;;;18.23;17.07;;;13.40;99.90;;;;;;4985153;28;20494;-66
2021/10/30 12:09:18;;;;;;;18.47;17.23;;;13.50;99.90;;;;;;4980787;28;20450;-66
2021/10/30 12:11:45;;;;;;;18.80;17.40;;;13.60;99.90;;;;;;4999590;28;20446;-65
2021/10/30 12:14:12;;;;;;;17.73;16.67;;;13.50;99.90;;;;;;5002662;28;20485;-65
2021/10/30 12:16:39;;;;;;;19.33;17.93;;;13.60;99.90;;;;;;5002499;28;20980;-65
2021/10/30 12:19:06;;;;;;;19.53;18.23;;;13.70;99.90;;;;;;5002654;28;20453;-65
2021/10/30 12:21:35;;;;;;;19.27;17.93;;;13.70;99.90;;;;;;5002854;28;21031;-65
2021/10/30 12:24:04;;;;;;;18.40;17.40;;;13.80;99.90;;;;;;5002422;28;20891;-65
2021/10/30 12:26:33;;;;;;;18.97;17.73;;;13.80;99.90;;;;;;5045113;22;20496;-60
2021/10/30 12:29:15;;;;;;;19.67;18.37;;;13.80;99.90;;;;;;5002926;28;20461;-58
2021/10/30 12:31:42;;;;;;;17.53;16.53;;;13.80;99.90;;;;;;5000514;28;20461;-61
2021/10/30 12:34:13;;;;;;;16.57;15.57;;;13.80;99.90;;;;;;5002711;28;20560;-62
2021/10/30 12:36:41;;;;;;;19.77;18.47;;;13.80;99.90;;;;;;5002260;28;20465;-59